Time;durP1;ratioP1;P1;durP2;ratioP2;P2;SDS_P1;SDS_P2;PMS_P1;PMS_P2;Temp;Humidity;BMP_temperature;BMP_pressure;BME280_temperature;BME280_humidity;BME280_pressure;Samples;Min_cycle;Max_cycle;Signal;HPM_P1;HPM_P2
2021/09/06 00:01:21;;;;;;;11.73;10.53;;;17.20;1.00;;;;;;5052876;28;20194;-56
2021/09/06 00:03:47;;;;;;;15.03;11.63;;;17.20;1.00;;;;;;5048238;28;20194;-56
2021/09/06 00:06:12;;;;;;;13.33;10.77;;;17.20;1.00;;;;;;5052689;28;20193;-57
2021/09/06 00:08:38;;;;;;;12.87;11.07;;;17.30;1.00;;;;;;5052784;28;20253;-57
2021/09/06 00:11:09;;;;;;;12.87;10.37;;;17.20;1.00;;;;;;5051965;28;20247;-58
2021/09/06 00:13:36;;;;;;;13.10;10.90;;;17.30;1.00;;;;;;5052918;28;20185;-55
2021/09/06 00:16:03;;;;;;;14.20;10.60;;;17.30;1.00;;;;;;5051778;28;20488;-57
2021/09/06 00:18:29;;;;;;;17.03;11.50;;;17.20;1.00;;;;;;5052742;28;20999;-57
2021/09/06 00:21:01;;;;;;;16.63;11.97;;;17.20;1.00;;;;;;5052586;28;20846;-56
2021/09/06 00:23:27;;;;;;;13.83;10.63;;;17.20;1.00;;;;;;5046255;28;20973;-57
2021/09/06 00:25:53;;;;;;;14.30;11.20;;;17.20;1.00;;;;;;5052537;28;20440;-57
2021/09/06 00:28:19;;;;;;;14.17;11.63;;;17.20;1.00;;;;;;5048982;28;20430;-57
2021/09/06 00:30:44;;;;;;;14.73;11.20;;;17.20;1.00;;;;;;5052175;28;20456;-57
2021/09/06 00:33:10;;;;;;;15.97;12.40;;;17.30;1.00;;;;;;5052215;28;20660;-56
2021/09/06 00:35:36;;;;;;;14.10;12.23;;;17.20;1.00;;;;;;5050420;28;20223;-57
2021/09/06 00:38:03;;;;;;;13.73;11.80;;;17.20;1.00;;;;;;5049817;28;20196;-56
2021/09/06 00:40:28;;;;;;;13.57;11.17;;;17.20;1.00;;;;;;5048297;28;20420;-57
2021/09/06 00:42:54;;;;;;;12.93;11.33;;;17.10;1.00;;;;;;5051978;28;20436;-57
2021/09/06 00:45:20;;;;;;;16.50;12.20;;;17.10;1.00;;;;;;5050425;28;20195;-56
2021/09/06 00:47:45;;;;;;;12.60;10.80;;;17.10;1.00;;;;;;5052375;28;20243;-55
2021/09/06 00:50:13;;;;;;;14.23;11.13;;;17.10;1.00;;;;;;5051266;28;20323;-57
2021/09/06 00:52:44;;;;;;;15.60;12.60;;;17.10;1.00;;;;;;5051164;28;20241;-56
2021/09/06 00:55:11;;;;;;;14.90;12.50;;;17.10;1.00;;;;;;5052278;28;20518;-57
2021/09/06 00:57:37;;;;;;;13.60;11.57;;;17.00;1.00;;;;;;5049877;28;20494;-57
2021/09/06 01:00:09;;;;;;;12.73;11.23;;;17.00;1.00;;;;;;5051910;28;20941;-56
2021/09/06 01:02:34;;;;;;;14.63;11.80;;;16.90;1.00;;;;;;5051774;28;20224;-58
2021/09/06 01:05:00;;;;;;;14.70;11.67;;;17.00;1.00;;;;;;5051769;28;20476;-58
2021/09/06 01:07:26;;;;;;;14.80;12.70;;;17.00;1.00;;;;;;5051822;28;20182;-57
2021/09/06 01:09:53;;;;;;;14.13;10.80;;;16.90;1.00;;;;;;5049595;28;21358;-56
2021/09/06 01:12:18;;;;;;;13.03;11.73;;;16.80;1.00;;;;;;5051510;28;20232;-56
2021/09/06 01:14:44;;;;;;;15.00;11.57;;;16.80;1.00;;;;;;5050266;28;20419;-57
2021/09/06 01:17:11;;;;;;;12.60;10.13;;;16.90;1.00;;;;;;5051652;28;20191;-57
2021/09/06 01:19:36;;;;;;;15.27;11.70;;;17.00;1.00;;;;;;5051513;28;20680;-56
2021/09/06 01:22:02;;;;;;;12.57;11.03;;;16.90;1.00;;;;;;5049430;28;20744;-57
2021/09/06 01:24:28;;;;;;;11.90;10.10;;;16.70;1.00;;;;;;5051061;28;20186;-56
2021/09/06 01:26:53;;;;;;;13.13;11.20;;;16.70;1.00;;;;;;5050954;28;20192;-56
2021/09/06 01:29:19;;;;;;;13.70;11.23;;;16.80;1.00;;;;;;5049835;28;20214;-56
2021/09/06 01:31:45;;;;;;;13.90;11.33;;;16.90;1.00;;;;;;5051306;28;20186;-57
2021/09/06 01:34:11;;;;;;;14.43;11.17;;;16.90;1.00;;;;;;5049064;28;20200;-57
2021/09/06 01:36:37;;;;;;;12.20;10.90;;;16.90;1.00;;;;;;5050991;28;20228;-57
2021/09/06 01:39:04;;;;;;;15.03;10.90;;;16.90;1.00;;;;;;5050142;28;20436;-56
2021/09/06 01:41:29;;;;;;;15.47;11.77;;;16.80;1.00;;;;;;5050016;28;20449;-56
2021/09/06 01:43:55;;;;;;;12.20;10.80;;;16.70;1.00;;;;;;5050486;28;20936;-56
2021/09/06 01:46:20;;;;;;;11.63;10.10;;;16.80;1.00;;;;;;5061000;28;20723;-56
2021/09/06 01:48:46;;;;;;;14.50;11.27;;;16.80;1.00;;;;;;5070665;28;20336;-56
2021/09/06 01:51:11;;;;;;;12.93;11.07;;;16.80;1.00;;;;;;5055035;28;20280;-57
2021/09/06 01:53:37;;;;;;;15.23;10.27;;;16.80;1.00;;;;;;5050845;28;20187;-57
2021/09/06 01:56:03;;;;;;;12.90;10.30;;;16.70;1.00;;;;;;5050925;28;20654;-57
2021/09/06 01:58:29;;;;;;;12.27;10.60;;;16.70;1.00;;;;;;5048555;28;20231;-57
2021/09/06 02:00:54;;;;;;;11.33;10.13;;;16.70;1.00;;;;;;5049141;28;20845;-57
2021/09/06 02:03:20;;;;;;;11.30;9.50;;;16.70;1.00;;;;;;5049984;28;20247;-59
2021/09/06 02:05:45;;;;;;;11.60;10.40;;;16.70;1.00;;;;;;5051062;28;20186;-57
2021/09/06 02:08:11;;;;;;;12.27;10.47;;;16.70;1.00;;;;;;5050865;28;20190;-57
2021/09/06 02:10:37;;;;;;;12.60;10.90;;;16.60;1.00;;;;;;5047712;28;20229;-56
2021/09/06 02:13:02;;;;;;;15.00;11.77;;;16.60;1.00;;;;;;5050586;28;20212;-56
2021/09/06 02:15:28;;;;;;;14.07;11.80;;;16.50;1.00;;;;;;5048413;28;20189;-56
2021/09/06 02:17:53;;;;;;;17.17;11.20;;;16.50;1.00;;;;;;5049134;28;20240;-56
2021/09/06 02:20:19;;;;;;;13.13;10.83;;;16.40;1.00;;;;;;5050495;28;20190;-56
2021/09/06 02:22:44;;;;;;;11.20;9.90;;;16.30;1.00;;;;;;5050323;28;20196;-56
2021/09/06 02:25:10;;;;;;;11.13;10.00;;;16.30;1.00;;;;;;5050468;28;20244;-57
2021/09/06 02:27:35;;;;;;;12.40;10.70;;;16.30;1.00;;;;;;5046534;28;20194;-56
2021/09/06 02:30:01;;;;;;;10.53;9.43;;;16.30;1.00;;;;;;5050216;28;20262;-56
2021/09/06 02:32:27;;;;;;;12.70;10.10;;;16.30;1.00;;;;;;5044728;28;20188;-58
2021/09/06 02:34:52;;;;;;;10.23;9.03;;;16.40;1.00;;;;;;5050227;28;20233;-57
2021/09/06 02:37:18;;;;;;;12.43;10.27;;;16.50;1.00;;;;;;5050477;28;20206;-56
2021/09/06 02:39:43;;;;;;;11.03;9.87;;;16.50;1.00;;;;;;5048033;28;20198;-56
2021/09/06 02:42:09;;;;;;;11.23;8.53;;;16.50;1.00;;;;;;5050254;28;20263;-56
2021/09/06 02:44:35;;;;;;;9.70;8.67;;;16.50;1.00;;;;;;5049311;28;20659;-56
2021/09/06 02:47:00;;;;;;;11.30;8.50;;;16.60;1.00;;;;;;5049189;28;20200;-56
2021/09/06 02:49:26;;;;;;;9.37;8.10;;;16.60;1.00;;;;;;5049987;28;20664;-56
2021/09/06 02:51:52;;;;;;;9.10;8.00;;;16.60;1.00;;;;;;5050048;28;20622;-56
2021/09/06 02:54:18;;;;;;;9.67;8.70;;;16.50;1.00;;;;;;5050129;28;20582;-56
2021/09/06 02:56:44;;;;;;;8.90;8.07;;;16.50;1.00;;;;;;5049792;28;20502;-57
2021/09/06 02:59:10;;;;;;;9.97;7.90;;;16.50;1.00;;;;;;5049218;28;20612;-56
2021/09/06 03:01:36;;;;;;;12.70;8.40;;;16.40;1.00;;;;;;5050158;28;20933;-56
2021/09/06 03:04:02;;;;;;;9.90;7.90;;;16.40;1.00;;;;;;5049822;28;20490;-56
2021/09/06 03:06:27;;;;;;;10.63;8.10;;;16.40;1.00;;;;;;5047073;28;20191;-57
2021/09/06 03:08:53;;;;;;;10.00;8.50;;;16.40;1.00;;;;;;5046910;28;20414;-56
2021/09/06 03:11:23;;;;;;;10.03;8.07;;;16.30;1.00;;;;;;5047589;28;20251;-57
2021/09/06 03:13:53;;;;;;;10.23;7.60;;;16.30;1.00;;;;;;5052169;28;20185;-58
2021/09/06 03:16:19;;;;;;;10.50;7.47;;;16.20;1.00;;;;;;5053390;28;20772;-58
2021/09/06 03:18:44;;;;;;;10.20;8.80;;;16.20;1.00;;;;;;5053304;28;20495;-56
2021/09/06 03:21:10;;;;;;;9.80;8.40;;;16.20;1.00;;;;;;5050558;28;20460;-56
2021/09/06 03:23:35;;;;;;;12.67;8.17;;;16.10;1.00;;;;;;5050379;28;20201;-56
2021/09/06 03:26:01;;;;;;;9.20;7.83;;;16.10;1.00;;;;;;5053046;28;20190;-56
2021/09/06 03:28:26;;;;;;;7.70;6.90;;;16.10;1.00;;;;;;5053016;28;20185;-55
2021/09/06 03:30:52;;;;;;;9.53;8.03;;;15.90;1.00;;;;;;5053213;28;20747;-57
2021/09/06 03:33:17;;;;;;;12.07;9.30;;;15.90;1.00;;;;;;5052952;28;20184;-57
2021/09/06 03:35:43;;;;;;;11.13;9.33;;;15.90;1.00;;;;;;5052468;28;20248;-58
2021/09/06 03:38:13;;;;;;;10.93;8.53;;;15.90;1.00;;;;;;5050169;28;20193;-57
2021/09/06 03:40:40;;;;;;;11.13;9.83;;;15.90;1.00;;;;;;5050827;28;20205;-56
2021/09/06 03:43:06;;;;;;;10.73;8.47;;;15.90;1.00;;;;;;5051990;28;20442;-56
2021/09/06 03:45:31;;;;;;;13.27;10.20;;;15.80;1.00;;;;;;5051638;28;20801;-56
2021/09/06 03:47:57;;;;;;;10.60;8.50;;;15.80;1.00;;;;;;5051751;28;20603;-58
2021/09/06 03:50:23;;;;;;;9.93;8.80;;;15.80;1.00;;;;;;5052836;28;20197;-57
2021/09/06 03:52:48;;;;;;;10.47;8.67;;;15.80;1.00;;;;;;5052902;28;20181;-57
2021/09/06 03:55:14;;;;;;;12.03;8.90;;;15.70;1.00;;;;;;5051090;28;20247;-56
2021/09/06 03:57:40;;;;;;;11.33;7.93;;;15.70;1.00;;;;;;5052730;28;20177;-56
2021/09/06 04:00:06;;;;;;;12.43;9.93;;;15.70;1.00;;;;;;5052168;28;20196;-56
2021/09/06 04:02:32;;;;;;;11.10;8.77;;;15.70;1.00;;;;;;5052568;28;20182;-56
2021/09/06 04:04:59;;;;;;;8.80;7.30;;;15.60;1.00;;;;;;5052038;28;21004;-57
2021/09/06 04:07:25;;;;;;;9.70;7.07;;;15.60;1.00;;;;;;5050292;28;20181;-58
2021/09/06 04:09:50;;;;;;;12.00;7.83;;;15.60;1.00;;;;;;5050455;28;20476;-57
2021/09/06 04:12:16;;;;;;;10.57;7.33;;;15.60;1.00;;;;;;5051493;28;20185;-56
2021/09/06 04:14:42;;;;;;;9.83;8.20;;;15.60;1.00;;;;;;5046645;28;20575;-57
2021/09/06 04:17:08;;;;;;;9.20;7.73;;;15.60;1.00;;;;;;5052340;28;20414;-55
2021/09/06 04:19:34;;;;;;;9.23;7.50;;;15.60;1.00;;;;;;5051451;28;20224;-57
2021/09/06 04:22:00;;;;;;;9.23;7.80;;;15.60;1.00;;;;;;5051509;28;20980;-57
2021/09/06 04:24:27;;;;;;;9.53;8.00;;;15.60;1.00;;;;;;5051672;28;20189;-60
2021/09/06 04:26:53;;;;;;;9.23;7.80;;;15.50;1.00;;;;;;5051646;28;20446;-59
2021/09/06 04:29:18;;;;;;;11.00;9.00;;;15.40;1.00;;;;;;5051484;28;20523;-58
2021/09/06 04:31:44;;;;;;;11.53;7.97;;;15.40;1.00;;;;;;5051744;28;20412;-60
2021/09/06 04:34:10;;;;;;;9.70;8.60;;;15.40;1.00;;;;;;5051702;28;20181;-59
2021/09/06 04:36:36;;;;;;;11.70;7.80;;;15.30;1.00;;;;;;5051346;28;20311;-58
2021/09/06 04:39:02;;;;;;;11.73;8.20;;;15.30;1.00;;;;;;5051685;28;20184;-60
2021/09/06 04:41:27;;;;;;;8.20;7.03;;;15.40;1.00;;;;;;5051641;28;20207;-58
2021/09/06 04:43:53;;;;;;;8.30;7.37;;;15.20;1.00;;;;;;5051256;28;20443;-57
2021/09/06 04:46:18;;;;;;;8.83;6.53;;;15.30;1.00;;;;;;5051844;28;20188;-54
2021/09/06 04:48:44;;;;;;;8.70;7.30;;;15.30;1.00;;;;;;5050856;28;20192;-55
2021/09/06 04:51:11;;;;;;;10.40;7.73;;;15.20;1.00;;;;;;5051148;28;20673;-55
2021/09/06 04:53:38;;;;;;;9.57;6.67;;;15.40;1.00;;;;;;5051260;28;20272;-56
2021/09/06 04:56:03;;;;;;;15.77;13.93;;;15.40;1.00;;;;;;5050984;28;20443;-55
2021/09/06 04:58:29;;;;;;;9.43;7.47;;;15.40;1.00;;;;;;5051181;28;20446;-54
2021/09/06 05:00:54;;;;;;;9.23;7.63;;;15.40;1.00;;;;;;5051123;28;20186;-55
2021/09/06 05:03:20;;;;;;;8.07;7.07;;;15.40;1.00;;;;;;5051236;28;20224;-57
2021/09/06 05:05:45;;;;;;;10.33;6.30;;;15.30;1.00;;;;;;5050923;28;20198;-55
2021/09/06 05:08:11;;;;;;;7.40;6.37;;;15.40;1.00;;;;;;5050915;28;20196;-55
2021/09/06 05:10:36;;;;;;;9.23;6.20;;;15.50;1.00;;;;;;5051023;28;20205;-55
2021/09/06 05:13:02;;;;;;;9.40;6.57;;;15.50;1.00;;;;;;5050544;28;20540;-55
2021/09/06 05:15:28;;;;;;;9.27;6.67;;;15.60;1.00;;;;;;5049963;28;20172;-55
2021/09/06 05:17:55;;;;;;;7.60;6.00;;;15.70;1.00;;;;;;5048231;28;20302;-56
2021/09/06 05:20:21;;;;;;;8.17;7.27;;;15.70;1.00;;;;;;5049664;28;20190;-56
2021/09/06 05:22:46;;;;;;;11.70;7.20;;;15.80;1.00;;;;;;5049865;28;20448;-55
2021/09/06 05:25:12;;;;;;;7.40;5.97;;;15.90;1.00;;;;;;5050267;28;20423;-55
2021/09/06 05:27:38;;;;;;;8.73;6.37;;;16.00;1.00;;;;;;5049797;28;20233;-56
2021/09/06 05:30:04;;;;;;;8.80;5.83;;;16.10;1.00;;;;;;5050184;28;20630;-55
2021/09/06 05:32:30;;;;;;;8.63;6.23;;;16.20;1.00;;;;;;5050259;28;20466;-54
2021/09/06 05:34:55;;;;;;;9.50;6.27;;;16.40;1.00;;;;;;5050141;28;20541;-54
2021/09/06 05:37:21;;;;;;;7.47;5.07;;;16.40;1.00;;;;;;5050471;28;20191;-55
2021/09/06 05:39:46;;;;;;;8.97;5.80;;;16.60;1.00;;;;;;5049903;28;20191;-55
2021/09/06 05:42:12;;;;;;;7.67;4.90;;;16.60;1.00;;;;;;5050419;28;20181;-55
2021/09/06 05:44:37;;;;;;;6.43;5.03;;;16.70;1.00;;;;;;5050010;28;20190;-55
2021/09/06 05:47:03;;;;;;;10.67;6.27;;;16.70;1.00;;;;;;5050238;28;20193;-56
2021/09/06 05:49:28;;;;;;;7.83;4.87;;;16.90;1.00;;;;;;5050276;28;20190;-55
2021/09/06 05:51:54;;;;;;;7.53;4.80;;;16.90;1.00;;;;;;5049574;28;20182;-55
2021/09/06 05:54:20;;;;;;;5.33;4.83;;;16.90;1.00;;;;;;5050388;28;20192;-55
2021/09/06 05:56:45;;;;;;;7.77;5.00;;;17.00;1.00;;;;;;5049865;28;20191;-56
2021/09/06 05:59:11;;;;;;;6.93;5.37;;;17.00;1.00;;;;;;5049955;28;20192;-55
2021/09/06 06:01:36;;;;;;;6.73;6.03;;;17.10;1.00;;;;;;5049668;28;20177;-56
2021/09/06 06:04:02;;;;;;;6.60;4.20;;;17.20;1.00;;;;;;5050247;28;20180;-57
2021/09/06 06:06:28;;;;;;;7.60;4.80;;;17.20;1.00;;;;;;5049987;28;20190;-55
2021/09/06 06:08:54;;;;;;;8.60;4.60;;;17.30;1.00;;;;;;5049987;28;20193;-56
2021/09/06 06:11:20;;;;;;;6.73;5.03;;;17.30;1.00;;;;;;5052072;28;20475;-54
2021/09/06 06:13:45;;;;;;;7.70;4.93;;;17.30;1.00;;;;;;5048562;28;20521;-56
2021/09/06 06:16:11;;;;;;;5.97;4.90;;;17.40;1.00;;;;;;5048982;28;20195;-54
2021/09/06 06:18:36;;;;;;;5.30;4.57;;;17.50;1.00;;;;;;5048741;28;20190;-56
2021/09/06 06:21:02;;;;;;;6.90;5.77;;;;;;;;;;5049941;28;20202;-55
2021/09/06 06:23:28;;;;;;;7.33;5.03;;;17.60;1.00;;;;;;5048965;28;20190;-56
2021/09/06 06:25:54;;;;;;;5.10;4.37;;;17.70;1.00;;;;;;5048717;28;20450;-56
2021/09/06 06:28:19;;;;;;;6.03;4.20;;;17.60;1.00;;;;;;5049445;28;20227;-54
2021/09/06 06:30:45;;;;;;;4.30;3.90;;;17.70;1.00;;;;;;5049216;28;20667;-54
2021/09/06 06:33:10;;;;;;;4.30;3.63;;;17.80;1.00;;;;;;5048696;28;20617;-55
2021/09/06 06:35:38;;;;;;;5.37;4.87;;;17.80;1.00;;;;;;5048569;28;20233;-55
2021/09/06 06:38:03;;;;;;;4.97;4.27;;;18.00;1.00;;;;;;5055898;28;20619;-55
2021/09/06 06:40:29;;;;;;;6.73;4.30;;;18.00;1.00;;;;;;5048789;28;20553;-56
2021/09/06 06:42:55;;;;;;;6.13;4.80;;;18.20;1.00;;;;;;5049310;28;20621;-55
2021/09/06 06:45:20;;;;;;;6.30;4.43;;;18.30;1.00;;;;;;5052654;28;20197;-56
2021/09/06 06:47:46;;;;;;;7.90;4.67;;;18.40;1.00;;;;;;5053324;28;20190;-57
2021/09/06 06:50:13;;;;;;;5.43;4.20;;;18.50;1.00;;;;;;5053798;28;20219;-56
2021/09/06 06:52:39;;;;;;;5.20;4.00;;;18.60;1.00;;;;;;5053149;28;20183;-55
2021/09/06 06:55:05;;;;;;;6.77;4.77;;;18.60;1.00;;;;;;5053514;28;20551;-56
2021/09/06 06:57:30;;;;;;;5.03;4.53;;;18.60;1.00;;;;;;5053532;28;20395;-57
2021/09/06 06:59:56;;;;;;;6.27;4.20;;;20.20;1.00;;;;;;5053764;28;20464;-56
2021/09/06 07:02:21;;;;;;;7.00;5.23;;;18.80;1.00;;;;;;5053290;28;20201;-55
2021/09/06 07:04:47;;;;;;;5.20;4.70;;;19.00;1.00;;;;;;5053501;28;20219;-56
2021/09/06 07:07:12;;;;;;;9.70;5.00;;;19.20;1.00;;;;;;5047035;28;20199;-57
2021/09/06 07:09:38;;;;;;;6.37;4.60;;;19.30;1.00;;;;;;5051195;28;20257;-55
2021/09/06 07:12:04;;;;;;;6.03;4.97;;;19.40;1.00;;;;;;5054013;28;20270;-55
2021/09/06 07:14:29;;;;;;;7.90;6.23;;;19.40;1.00;;;;;;5050769;28;20191;-56
2021/09/06 07:16:55;;;;;;;5.73;5.13;;;19.40;1.00;;;;;;5052035;28;20609;-55
2021/09/06 07:19:20;;;;;;;7.27;5.87;;;19.50;1.00;;;;;;5053517;28;20195;-55
2021/09/06 07:21:46;;;;;;;6.53;5.53;;;19.60;1.00;;;;;;5050728;28;20191;-55
2021/09/06 07:24:11;;;;;;;7.27;5.73;;;19.80;1.00;;;;;;5053460;28;20181;-56
2021/09/06 07:26:37;;;;;;;6.70;5.10;;;19.90;1.00;;;;;;5052468;28;20669;-55
2021/09/06 07:29:03;;;;;;;7.00;5.80;;;20.00;1.00;;;;;;5061772;28;20187;-55
2021/09/06 07:31:28;;;;;;;6.17;5.57;;;19.90;1.00;;;;;;5073096;28;20217;-55
2021/09/06 07:33:54;;;;;;;9.13;6.63;;;20.10;1.00;;;;;;5053337;28;20551;-56
2021/09/06 07:36:19;;;;;;;6.20;5.30;;;20.30;1.00;;;;;;5058604;28;20236;-55
2021/09/06 07:38:45;;;;;;;6.80;5.60;;;20.40;1.00;;;;;;5052909;28;20519;-55
2021/09/06 07:41:10;;;;;;;8.70;6.20;;;20.50;1.00;;;;;;5050035;28;20207;-55
2021/09/06 07:43:36;;;;;;;7.70;6.30;;;20.70;1.00;;;;;;5051364;28;20184;-57
2021/09/06 07:46:02;;;;;;;8.60;6.80;;;20.80;1.00;;;;;;5053058;28;20271;-54
2021/09/06 07:48:27;;;;;;;9.23;6.47;;;21.10;1.00;;;;;;5053071;28;20186;-56
2021/09/06 07:50:53;;;;;;;8.80;7.43;;;21.30;1.00;;;;;;5052388;28;20212;-55
2021/09/06 07:53:19;;;;;;;7.67;5.47;;;21.30;1.00;;;;;;5052295;28;20177;-56
2021/09/06 07:55:44;;;;;;;8.83;6.57;;;21.20;1.00;;;;;;5051215;28;20205;-55
2021/09/06 07:58:10;;;;;;;6.63;6.03;;;21.30;1.00;;;;;;5052416;28;20441;-55
2021/09/06 08:00:36;;;;;;;6.70;5.80;;;21.30;1.00;;;;;;5049176;28;20528;-55
2021/09/06 08:03:02;;;;;;;7.00;6.30;;;21.40;1.00;;;;;;5051959;28;20501;-55
2021/09/06 08:05:31;;;;;;;8.80;6.33;;;21.60;1.00;;;;;;5051252;28;20191;-55
2021/09/06 08:07:57;;;;;;;6.17;5.53;;;21.80;1.00;;;;;;5050248;28;20188;-57
2021/09/06 08:10:23;;;;;;;7.97;6.40;;;21.80;1.00;;;;;;5043856;28;21317;-54
2021/09/06 08:12:49;;;;;;;7.30;6.20;;;21.90;1.00;;;;;;5049450;28;20224;-56
2021/09/06 08:15:15;;;;;;;7.47;6.10;;;21.80;1.00;;;;;;5050711;28;20410;-55
2021/09/06 08:17:40;;;;;;;6.50;5.47;;;21.90;1.00;;;;;;5052508;28;20172;-56
2021/09/06 08:20:09;;;;;;;10.40;6.13;;;22.00;1.00;;;;;;5052258;28;21002;-57
2021/09/06 08:22:35;;;;;;;9.63;6.50;;;22.00;1.00;;;;;;5051537;28;20184;-56
2021/09/06 08:25:05;;;;;;;8.63;6.27;;;21.90;1.00;;;;;;5049319;28;20486;-56
2021/09/06 08:27:31;;;;;;;8.67;7.40;;;22.10;1.00;;;;;;5058298;28;21009;-56
2021/09/06 08:29:56;;;;;;;7.17;6.00;;;22.30;1.00;;;;;;5052145;28;20546;-57
2021/09/06 08:32:22;;;;;;;7.00;6.30;;;22.40;1.00;;;;;;5052021;28;20172;-56
2021/09/06 08:34:49;;;;;;;9.50;7.10;;;;;;;;;;5051678;28;20176;-56
2021/09/06 08:37:16;;;;;;;8.60;6.53;;;22.70;1.00;;;;;;5047913;28;20187;-56
2021/09/06 08:39:41;;;;;;;7.07;6.20;;;22.90;1.00;;;;;;5050882;28;20996;-54
2021/09/06 08:42:08;;;;;;;9.67;6.07;;;23.10;1.00;;;;;;5057505;28;20422;-55
2021/09/06 08:44:35;;;;;;;7.90;6.20;;;23.00;1.00;;;;;;5051914;28;20173;-57
2021/09/06 08:47:01;;;;;;;11.33;6.47;;;23.10;1.00;;;;;;5046210;28;20418;-55
2021/09/06 08:49:27;;;;;;;8.70;6.80;;;23.30;1.00;;;;;;5051284;28;20414;-56
2021/09/06 08:51:52;;;;;;;9.93;6.97;;;23.50;1.00;;;;;;5051173;28;20173;-55
2021/09/06 08:54:18;;;;;;;7.63;6.83;;;23.70;1.00;;;;;;5054629;28;20183;-56
2021/09/06 08:56:44;;;;;;;7.80;7.00;;;23.80;1.00;;;;;;5059315;28;20526;-55
2021/09/06 08:59:09;;;;;;;10.17;6.80;;;24.00;1.00;;;;;;5071843;28;20207;-56
2021/09/06 09:01:40;;;;;;;9.60;8.43;;;24.30;1.00;;;;;;5071286;28;20175;-56
2021/09/06 09:04:26;;;;;;;7.97;7.17;;;24.60;1.00;;;;;;5071451;28;20188;-56
2021/09/06 09:06:57;;;;;;;9.10;7.80;;;24.70;1.00;;;;;;5056657;28;20490;-56
2021/09/06 09:09:25;;;;;;;11.23;8.30;;;24.50;1.00;;;;;;5048930;28;20448;-55
2021/09/06 09:12:03;;;;;;;9.97;7.67;;;24.30;1.00;;;;;;5051651;28;20426;-55
2021/09/06 09:14:30;;;;;;;8.97;8.07;;;24.40;1.00;;;;;;5050789;28;20443;-56
2021/09/06 09:16:56;;;;;;;8.67;7.73;;;24.70;1.00;;;;;;5049268;28;20446;-56
2021/09/06 09:19:23;;;;;;;11.70;8.50;;;24.70;1.00;;;;;;5050068;28;20450;-55
2021/09/06 09:22:03;;;;;;;11.77;8.70;;;24.80;1.00;;;;;;5050145;28;20534;-56
2021/09/06 09:24:29;;;;;;;9.50;8.53;;;24.70;1.00;;;;;;5048962;28;20418;-55
2021/09/06 09:27:00;;;;;;;12.10;10.27;;;24.60;1.00;;;;;;5050939;28;20733;-56
2021/09/06 09:29:26;;;;;;;10.00;9.07;;;25.00;1.00;;;;;;5049288;28;20451;-57
2021/09/06 09:31:57;;;;;;;11.30;10.10;;;25.20;1.00;;;;;;5050900;28;20410;-55
2021/09/06 09:34:23;;;;;;;10.90;9.67;;;25.20;1.00;;;;;;5051126;28;20745;-55
2021/09/06 09:36:52;;;;;;;10.77;9.70;;;24.80;1.00;;;;;;5049731;28;20458;-57
2021/09/06 09:39:19;;;;;;;12.10;10.70;;;24.60;1.00;;;;;;5058338;28;20187;-56
2021/09/06 09:41:48;;;;;;;12.93;11.17;;;24.60;1.00;;;;;;5050299;28;20471;-56
2021/09/06 09:44:20;;;;;;;13.90;11.67;;;24.40;1.00;;;;;;5050805;28;20415;-56
2021/09/06 09:47:03;;;;;;;13.60;10.80;;;24.70;1.00;;;;;;5048888;28;20451;-55
2021/09/06 09:49:31;;;;;;;13.43;12.13;;;25.10;1.00;;;;;;5050687;28;20449;-56
2021/09/06 09:51:57;;;;;;;13.00;11.70;;;25.00;1.00;;;;;;5049461;28;20491;-55
2021/09/06 09:54:22;;;;;;;13.43;11.23;;;24.50;1.00;;;;;;5050567;28;20435;-56
2021/09/06 09:56:49;;;;;;;13.97;12.00;;;24.50;1.00;;;;;;5050355;28;20181;-56
2021/09/06 09:59:16;;;;;;;13.00;11.70;;;24.80;1.00;;;;;;5049021;28;20219;-56
2021/09/06 10:02:06;;;;;;;16.30;13.00;;;25.10;1.00;;;;;;5050033;28;20453;-56
2021/09/06 10:04:34;;;;;;;13.80;11.30;;;25.00;1.00;;;;;;5050587;28;20502;-55
2021/09/06 10:07:01;;;;;;;15.40;11.90;;;25.00;1.00;;;;;;5049031;28;20924;-56
2021/09/06 10:09:27;;;;;;;13.33;11.90;;;25.30;1.00;;;;;;5043597;28;20459;-56
2021/09/06 10:12:03;;;;;;;17.77;12.17;;;25.50;1.00;;;;;;5047763;28;20439;-57
2021/09/06 10:14:29;;;;;;;13.33;11.83;;;25.30;1.00;;;;;;5050340;28;20890;-58
2021/09/06 10:17:07;;;;;;;15.13;12.47;;;25.30;1.00;;;;;;5049269;28;20418;-56
2021/09/06 10:19:44;;;;;;;15.17;13.57;;;25.40;1.00;;;;;;5049793;28;20268;-55
2021/09/06 10:22:23;;;;;;;20.00;14.87;;;25.50;1.00;;;;;;5046401;28;20450;-56
2021/09/06 10:25:04;;;;;;;16.50;14.77;;;25.60;1.00;;;;;;5047941;28;20962;-55
2021/09/06 10:27:31;;;;;;;21.33;16.00;;;25.40;1.00;;;;;;5050181;28;20402;-54
2021/09/06 10:30:06;;;;;;;21.43;14.87;;;25.40;1.00;;;;;;5049948;28;20785;-55
2021/09/06 10:32:42;;;;;;;17.33;15.60;;;25.30;1.00;;;;;;5045375;28;20483;-55
2021/09/06 10:35:20;;;;;;;18.03;16.10;;;25.50;1.00;;;;;;5049083;28;20942;-56
2021/09/06 10:37:47;;;;;;;16.93;14.73;;;25.70;1.00;;;;;;5042952;28;20914;-56
2021/09/06 10:40:27;;;;;;;19.43;15.43;;;25.90;1.00;;;;;;5049108;28;20521;-58
2021/09/06 10:42:52;;;;;;;18.80;16.40;;;26.00;1.00;;;;;;5049067;28;20951;-57
2021/09/06 10:45:20;;;;;;;20.33;16.43;;;26.00;1.00;;;;;;5050175;28;20435;-56
2021/09/06 10:47:57;;;;;;;18.23;16.43;;;25.80;1.00;;;;;;5057909;28;20330;-57
2021/09/06 10:50:23;;;;;;;19.63;17.57;;;25.50;1.00;;;;;;5066992;28;20438;-55
2021/09/06 10:52:49;;;;;;;20.43;16.57;;;25.30;1.00;;;;;;5047645;28;20421;-55
2021/09/06 10:55:17;;;;;;;19.03;17.07;;;25.10;1.00;;;;;;5049940;28;20173;-55
2021/09/06 10:57:45;;;;;;;17.67;15.83;;;25.30;1.00;;;;;;5048452;28;20433;-57
2021/09/06 11:00:19;;;;;;;17.90;16.30;;;25.50;1.00;;;;;;5048146;28;20961;-56
2021/09/06 11:02:45;;;;;;;21.80;16.93;;;25.60;1.00;;;;;;5049723;28;20420;-57
2021/09/06 11:05:23;;;;;;;18.37;16.57;;;25.60;1.00;;;;;;5048642;28;20414;-55
2021/09/06 11:07:50;;;;;;;16.87;15.27;;;25.70;1.00;;;;;;5047903;28;20851;-55
2021/09/06 11:10:22;;;;;;;18.60;16.00;;;25.70;1.00;;;;;;5046858;28;20444;-56
2021/09/06 11:12:55;;;;;;;18.60;16.80;;;25.70;1.00;;;;;;5049953;28;20514;-57
2021/09/06 11:15:25;;;;;;;18.80;16.80;;;25.90;1.00;;;;;;5049800;28;20431;-55
2021/09/06 11:18:02;;;;;;;18.73;16.77;;;26.00;1.00;;;;;;5048431;28;20497;-55
2021/09/06 11:20:30;;;;;;;18.43;16.63;;;26.10;1.00;;;;;;5067437;28;20429;-56
2021/09/06 11:23:01;;;;;;;19.50;17.60;;;25.80;1.00;;;;;;5068591;28;20442;-56
2021/09/06 11:25:29;;;;;;;19.47;17.57;;;26.20;1.00;;;;;;5047180;28;20440;-56
2021/09/06 11:28:06;;;;;;;19.80;17.30;;;26.20;1.00;;;;;;5049648;28;20523;-56
2021/09/06 11:30:34;;;;;;;19.40;17.50;;;26.10;1.00;;;;;;5049988;28;20854;-57
2021/09/06 11:33:02;;;;;;;20.20;18.10;;;26.10;1.00;;;;;;5052281;28;20774;-55
2021/09/06 11:35:28;;;;;;;19.63;16.27;;;26.30;1.00;;;;;;5048899;28;20486;-56
2021/09/06 11:37:54;;;;;;;18.93;16.83;;;26.30;1.00;;;;;;5053582;28;20405;-56
2021/09/06 11:40:19;;;;;;;19.40;16.60;;;26.40;1.00;;;;;;5052578;28;20497;-59
2021/09/06 11:42:45;;;;;;;19.70;17.80;;;26.50;1.00;;;;;;5052741;28;20198;-56
2021/09/06 11:45:11;;;;;;;18.87;16.97;;;26.40;1.00;;;;;;5053439;28;20180;-55
2021/09/06 11:47:38;;;;;;;20.10;17.60;;;26.40;1.00;;;;;;5052921;28;20182;-56
2021/09/06 11:50:09;;;;;;;19.77;17.77;;;26.10;1.00;;;;;;5052898;28;20482;-57
2021/09/06 11:52:39;;;;;;;19.23;17.20;;;26.30;1.00;;;;;;5052850;28;20807;-57
2021/09/06 11:55:17;;;;;;;19.30;15.00;;;26.20;1.00;;;;;;5048224;28;20433;-55
2021/09/06 11:57:43;;;;;;;17.70;15.90;;;26.30;1.00;;;;;;5051318;28;20937;-56
2021/09/06 12:00:09;;;;;;;16.03;14.40;;;26.50;1.00;;;;;;5052885;28;20439;-56
2021/09/06 12:02:45;;;;;;;15.90;14.40;;;26.50;1.00;;;;;;5063487;28;20438;-57
2021/09/06 12:05:14;;;;;;;16.37;14.77;;;26.60;1.00;;;;;;5049615;28;20793;-57
2021/09/06 12:07:51;;;;;;;16.70;14.97;;;26.80;1.00;;;;;;5043748;28;20451;-55
2021/09/06 12:10:31;;;;;;;17.07;15.33;;;26.90;1.00;;;;;;5050685;28;20456;-56
2021/09/06 12:13:11;;;;;;;16.80;15.00;;;27.10;1.00;;;;;;5048541;28;20478;-56
2021/09/06 12:15:51;;;;;;;19.40;16.10;;;26.90;1.00;;;;;;5044760;28;20874;-56
2021/09/06 12:18:16;;;;;;;15.30;13.70;;;26.90;1.00;;;;;;5052569;28;20397;-55
2021/09/06 12:20:44;;;;;;;17.10;15.30;;;27.10;1.00;;;;;;5071289;28;20474;-57
2021/09/06 12:23:15;;;;;;;15.27;13.77;;;27.10;1.00;;;;;;5072460;28;20638;-55
2021/09/06 12:25:42;;;;;;;15.60;13.53;;;27.10;1.00;;;;;;5070979;28;20417;-57
2021/09/06 12:28:12;;;;;;;15.10;12.73;;;26.90;1.00;;;;;;5072433;28;20409;-55
2021/09/06 12:30:39;;;;;;;17.57;15.63;;;27.70;1.00;;;;;;5053591;28;20824;-56
2021/09/06 12:33:05;;;;;;;12.10;10.90;;;26.90;1.00;;;;;;5052290;28;20415;-57
2021/09/06 12:35:31;;;;;;;13.93;12.63;;;26.70;1.00;;;;;;5051748;28;20486;-55
2021/09/06 12:37:57;;;;;;;14.10;12.80;;;26.60;1.00;;;;;;5051298;28;21061;-54
2021/09/06 12:40:22;;;;;;;15.43;13.77;;;26.60;1.00;;;;;;5050270;28;20454;-56
2021/09/06 12:42:50;;;;;;;14.93;13.43;;;26.60;1.00;;;;;;5050559;28;20197;-56
2021/09/06 12:45:19;;;;;;;14.90;13.30;;;26.50;1.00;;;;;;5051906;28;20204;-56
2021/09/06 12:47:45;;;;;;;17.27;14.40;;;26.60;1.00;;;;;;5051438;28;20425;-57